sensor_id;sensor_type;location;lat;lon;timestamp;P1;durP1;ratioP1;P2;durP2;ratioP2
43678;SDS011;29279;50.858;4.392;2023-06-14T00:21:24;12.60;;;5.00;;
43678;SDS011;29279;50.858;4.392;2023-06-14T00:23:49;10.23;;;5.53;;
43678;SDS011;29279;50.858;4.392;2023-06-14T00:26:15;15.48;;;5.70;;
43678;SDS011;29279;50.858;4.392;2023-06-14T00:28:41;16.58;;;5.50;;
43678;SDS011;29279;50.858;4.392;2023-06-14T00:31:07;10.35;;;5.75;;
43678;SDS011;29279;50.858;4.392;2023-06-14T00:33:32;14.02;;;5.82;;
43678;SDS011;29279;50.858;4.392;2023-06-14T00:35:58;10.20;;;5.93;;
43678;SDS011;29279;50.858;4.392;2023-06-14T00:38:24;9.63;;;5.68;;
43678;SDS011;29279;50.858;4.392;2023-06-14T00:40:49;12.35;;;5.93;;
43678;SDS011;29279;50.858;4.392;2023-06-14T00:43:16;14.75;;;5.63;;
43678;SDS011;29279;50.858;4.392;2023-06-14T00:45:41;10.77;;;5.65;;
43678;SDS011;29279;50.858;4.392;2023-06-14T00:48:07;9.93;;;5.20;;
43678;SDS011;29279;50.858;4.392;2023-06-14T00:50:34;10.52;;;5.95;;
43678;SDS011;29279;50.858;4.392;2023-06-14T00:53:00;12.73;;;5.75;;
43678;SDS011;29279;50.858;4.392;2023-06-14T00:55:26;9.68;;;5.40;;
43678;SDS011;29279;50.858;4.392;2023-06-14T00:57:54;20.73;;;5.72;;
43678;SDS011;29279;50.858;4.392;2023-06-14T01:00:20;11.52;;;5.93;;
43678;SDS011;29279;50.858;4.392;2023-06-14T01:02:47;9.98;;;5.30;;
43678;SDS011;29279;50.858;4.392;2023-06-14T01:05:14;9.93;;;5.50;;
43678;SDS011;29279;50.858;4.392;2023-06-14T01:13:07;12.45;;;5.97;;
43678;SDS011;29279;50.858;4.392;2023-06-14T01:15:40;11.40;;;5.32;;
43678;SDS011;29279;50.858;4.392;2023-06-14T01:18:08;10.93;;;5.90;;
43678;SDS011;29279;50.858;4.392;2023-06-14T01:20:42;14.48;;;5.53;;
43678;SDS011;29279;50.858;4.392;2023-06-14T01:23:10;11.20;;;5.20;;
43678;SDS011;29279;50.858;4.392;2023-06-14T01:25:39;7.97;;;5.82;;
43678;SDS011;29279;50.858;4.392;2023-06-14T01:28:06;12.18;;;6.30;;
43678;SDS011;29279;50.858;4.392;2023-06-14T01:30:35;13.18;;;5.82;;
43678;SDS011;29279;50.858;4.392;2023-06-14T01:33:10;10.68;;;6.38;;
43678;SDS011;29279;50.858;4.392;2023-06-14T01:35:45;14.82;;;6.05;;
43678;SDS011;29279;50.858;4.392;2023-06-14T01:38:13;13.43;;;6.18;;
43678;SDS011;29279;50.858;4.392;2023-06-14T01:40:39;10.40;;;5.78;;
43678;SDS011;29279;50.858;4.392;2023-06-14T01:43:07;10.23;;;6.28;;
43678;SDS011;29279;50.858;4.392;2023-06-14T01:45:34;15.90;;;6.43;;
43678;SDS011;29279;50.858;4.392;2023-06-14T01:48:02;10.48;;;6.40;;
43678;SDS011;29279;50.858;4.392;2023-06-14T01:50:29;12.90;;;6.40;;
43678;SDS011;29279;50.858;4.392;2023-06-14T01:52:56;12.00;;;6.68;;
43678;SDS011;29279;50.858;4.392;2023-06-14T01:55:22;16.08;;;6.45;;
43678;SDS011;29279;50.858;4.392;2023-06-14T01:57:49;11.45;;;6.22;;
43678;SDS011;29279;50.858;4.392;2023-06-14T02:00:15;11.10;;;6.53;;
43678;SDS011;29279;50.858;4.392;2023-06-14T02:02:43;10.57;;;6.45;;
43678;SDS011;29279;50.858;4.392;2023-06-14T02:05:09;13.02;;;6.40;;
43678;SDS011;29279;50.858;4.392;2023-06-14T02:07:35;16.40;;;6.53;;
43678;SDS011;29279;50.858;4.392;2023-06-14T02:10:01;10.52;;;6.30;;
43678;SDS011;29279;50.858;4.392;2023-06-14T02:12:28;17.17;;;7.20;;
43678;SDS011;29279;50.858;4.392;2023-06-14T02:14:53;12.13;;;6.60;;
43678;SDS011;29279;50.858;4.392;2023-06-14T02:17:19;11.18;;;6.10;;
43678;SDS011;29279;50.858;4.392;2023-06-14T02:19:45;13.95;;;6.63;;
43678;SDS011;29279;50.858;4.392;2023-06-14T02:22:11;18.23;;;6.75;;
43678;SDS011;29279;50.858;4.392;2023-06-14T02:24:37;12.77;;;6.95;;
43678;SDS011;29279;50.858;4.392;2023-06-14T02:27:02;18.63;;;6.50;;
43678;SDS011;29279;50.858;4.392;2023-06-14T02:29:28;19.08;;;6.75;;
43678;SDS011;29279;50.858;4.392;2023-06-14T02:31:54;10.52;;;6.38;;
43678;SDS011;29279;50.858;4.392;2023-06-14T02:34:20;12.63;;;6.82;;
43678;SDS011;29279;50.858;4.392;2023-06-14T02:36:46;12.60;;;7.28;;
43678;SDS011;29279;50.858;4.392;2023-06-14T02:39:13;11.13;;;6.70;;
43678;SDS011;29279;50.858;4.392;2023-06-14T02:41:39;10.05;;;6.25;;
43678;SDS011;29279;50.858;4.392;2023-06-14T02:44:05;13.18;;;6.55;;
43678;SDS011;29279;50.858;4.392;2023-06-14T02:46:31;12.50;;;6.82;;
43678;SDS011;29279;50.858;4.392;2023-06-14T02:48:57;17.40;;;7.22;;
43678;SDS011;29279;50.858;4.392;2023-06-14T02:51:22;12.32;;;6.97;;
43678;SDS011;29279;50.858;4.392;2023-06-14T02:53:48;23.23;;;7.78;;
43678;SDS011;29279;50.858;4.392;2023-06-14T02:56:14;9.52;;;7.03;;
43678;SDS011;29279;50.858;4.392;2023-06-14T02:58:42;13.82;;;7.05;;
43678;SDS011;29279;50.858;4.392;2023-06-14T03:01:08;14.57;;;7.05;;
43678;SDS011;29279;50.858;4.392;2023-06-14T03:03:38;11.98;;;6.53;;
43678;SDS011;29279;50.858;4.392;2023-06-14T03:06:03;16.73;;;7.50;;
43678;SDS011;29279;50.858;4.392;2023-06-14T03:08:33;16.00;;;7.82;;
43678;SDS011;29279;50.858;4.392;2023-06-14T03:11:03;12.57;;;6.95;;
43678;SDS011;29279;50.858;4.392;2023-06-14T03:13:33;15.07;;;7.45;;
43678;SDS011;29279;50.858;4.392;2023-06-14T03:16:00;16.00;;;7.03;;
43678;SDS011;29279;50.858;4.392;2023-06-14T03:18:28;9.63;;;7.18;;
43678;SDS011;29279;50.858;4.392;2023-06-14T03:23:26;16.73;;;7.70;;
43678;SDS011;29279;50.858;4.392;2023-06-14T03:25:52;12.60;;;8.30;;
43678;SDS011;29279;50.858;4.392;2023-06-14T03:28:17;15.93;;;6.85;;
43678;SDS011;29279;50.858;4.392;2023-06-14T03:30:43;24.05;;;8.00;;
43678;SDS011;29279;50.858;4.392;2023-06-14T03:33:09;18.25;;;7.70;;
43678;SDS011;29279;50.858;4.392;2023-06-14T03:35:35;16.13;;;7.57;;
43678;SDS011;29279;50.858;4.392;2023-06-14T03:38:01;15.90;;;7.40;;
43678;SDS011;29279;50.858;4.392;2023-06-14T03:40:28;20.05;;;7.88;;
43678;SDS011;29279;50.858;4.392;2023-06-14T03:42:54;13.15;;;7.57;;
43678;SDS011;29279;50.858;4.392;2023-06-14T03:45:20;22.70;;;8.70;;
43678;SDS011;29279;50.858;4.392;2023-06-14T03:47:46;12.77;;;7.72;;
43678;SDS011;29279;50.858;4.392;2023-06-14T03:50:12;16.73;;;7.45;;
43678;SDS011;29279;50.858;4.392;2023-06-14T03:52:37;12.80;;;7.85;;
43678;SDS011;29279;50.858;4.392;2023-06-14T03:55:03;19.00;;;7.57;;
43678;SDS011;29279;50.858;4.392;2023-06-14T03:57:30;12.10;;;7.10;;
43678;SDS011;29279;50.858;4.392;2023-06-14T03:59:55;17.65;;;7.60;;
43678;SDS011;29279;50.858;4.392;2023-06-14T04:02:21;19.70;;;7.18;;
43678;SDS011;29279;50.858;4.392;2023-06-14T04:04:47;15.82;;;7.10;;
43678;SDS011;29279;50.858;4.392;2023-06-14T04:07:16;16.90;;;7.32;;
43678;SDS011;29279;50.858;4.392;2023-06-14T04:09:45;13.50;;;7.07;;
43678;SDS011;29279;50.858;4.392;2023-06-14T04:12:11;13.68;;;8.13;;
43678;SDS011;29279;50.858;4.392;2023-06-14T04:14:37;13.20;;;7.13;;
43678;SDS011;29279;50.858;4.392;2023-06-14T04:17:04;14.95;;;7.75;;
43678;SDS011;29279;50.858;4.392;2023-06-14T04:19:30;12.35;;;7.40;;
43678;SDS011;29279;50.858;4.392;2023-06-14T04:21:56;18.55;;;8.27;;
43678;SDS011;29279;50.858;4.392;2023-06-14T04:24:22;11.75;;;8.02;;
43678;SDS011;29279;50.858;4.392;2023-06-14T04:26:48;12.82;;;7.10;;
43678;SDS011;29279;50.858;4.392;2023-06-14T04:29:14;14.82;;;8.45;;
43678;SDS011;29279;50.858;4.392;2023-06-14T04:31:45;14.82;;;7.95;;
43678;SDS011;29279;50.858;4.392;2023-06-14T04:34:11;14.35;;;7.40;;
43678;SDS011;29279;50.858;4.392;2023-06-14T04:36:44;16.08;;;8.32;;
43678;SDS011;29279;50.858;4.392;2023-06-14T04:39:18;14.98;;;7.50;;
43678;SDS011;29279;50.858;4.392;2023-06-14T04:41:46;12.23;;;7.78;;
43678;SDS011;29279;50.858;4.392;2023-06-14T04:44:12;15.63;;;7.45;;
43678;SDS011;29279;50.858;4.392;2023-06-14T04:46:38;9.73;;;6.88;;
43678;SDS011;29279;50.858;4.392;2023-06-14T04:49:16;14.90;;;7.97;;
43678;SDS011;29279;50.858;4.392;2023-06-14T04:51:43;14.73;;;8.38;;
43678;SDS011;29279;50.858;4.392;2023-06-14T04:54:10;25.25;;;8.65;;
43678;SDS011;29279;50.858;4.392;2023-06-14T04:56:39;14.85;;;7.82;;
43678;SDS011;29279;50.858;4.392;2023-06-14T04:59:05;18.00;;;8.40;;
43678;SDS011;29279;50.858;4.392;2023-06-14T05:01:31;14.93;;;8.20;;
43678;SDS011;29279;50.858;4.392;2023-06-14T05:03:58;17.20;;;8.13;;
43678;SDS011;29279;50.858;4.392;2023-06-14T05:06:24;13.43;;;8.10;;
43678;SDS011;29279;50.858;4.392;2023-06-14T05:08:50;10.02;;;6.85;;
43678;SDS011;29279;50.858;4.392;2023-06-14T05:11:16;15.55;;;8.18;;
43678;SDS011;29279;50.858;4.392;2023-06-14T05:13:44;16.10;;;8.32;;
43678;SDS011;29279;50.858;4.392;2023-06-14T05:16:10;15.10;;;8.18;;
43678;SDS011;29279;50.858;4.392;2023-06-14T05:18:36;14.68;;;7.78;;
43678;SDS011;29279;50.858;4.392;2023-06-14T05:21:03;22.48;;;11.05;;
43678;SDS011;29279;50.858;4.392;2023-06-14T05:23:30;20.98;;;8.95;;
43678;SDS011;29279;50.858;4.392;2023-06-14T05:25:56;27.58;;;8.82;;
43678;SDS011;29279;50.858;4.392;2023-06-14T05:28:22;16.90;;;8.52;;
43678;SDS011;29279;50.858;4.392;2023-06-14T05:30:48;16.33;;;7.95;;
43678;SDS011;29279;50.858;4.392;2023-06-14T05:33:13;19.95;;;8.35;;
43678;SDS011;29279;50.858;4.392;2023-06-14T05:35:39;17.00;;;7.97;;
43678;SDS011;29279;50.858;4.392;2023-06-14T05:38:05;15.13;;;7.47;;
43678;SDS011;29279;50.858;4.392;2023-06-14T05:40:32;19.90;;;8.05;;
43678;SDS011;29279;50.858;4.392;2023-06-14T05:42:58;23.27;;;8.43;;
43678;SDS011;29279;50.858;4.392;2023-06-14T05:45:24;19.08;;;7.55;;
43678;SDS011;29279;50.858;4.392;2023-06-14T05:47:50;13.38;;;7.88;;
43678;SDS011;29279;50.858;4.392;2023-06-14T05:50:16;16.52;;;7.22;;
43678;SDS011;29279;50.858;4.392;2023-06-14T05:52:41;20.60;;;8.25;;
43678;SDS011;29279;50.858;4.392;2023-06-14T05:55:07;20.63;;;9.48;;
43678;SDS011;29279;50.858;4.392;2023-06-14T05:57:33;20.33;;;7.88;;
43678;SDS011;29279;50.858;4.392;2023-06-14T06:00:00;20.63;;;8.57;;
43678;SDS011;29279;50.858;4.392;2023-06-14T06:02:26;20.77;;;7.88;;
43678;SDS011;29279;50.858;4.392;2023-06-14T06:04:52;19.77;;;7.53;;
43678;SDS011;29279;50.858;4.392;2023-06-14T06:07:17;14.32;;;6.97;;
43678;SDS011;29279;50.858;4.392;2023-06-14T06:09:43;16.75;;;7.45;;
43678;SDS011;29279;50.858;4.392;2023-06-14T06:12:09;26.48;;;7.85;;
43678;SDS011;29279;50.858;4.392;2023-06-14T06:14:35;17.60;;;7.95;;
43678;SDS011;29279;50.858;4.392;2023-06-14T06:17:00;19.42;;;7.93;;
43678;SDS011;29279;50.858;4.392;2023-06-14T06:19:26;11.90;;;7.43;;
43678;SDS011;29279;50.858;4.392;2023-06-14T06:21:52;16.75;;;8.70;;
43678;SDS011;29279;50.858;4.392;2023-06-14T06:24:17;27.90;;;8.02;;
43678;SDS011;29279;50.858;4.392;2023-06-14T06:26:43;15.32;;;8.07;;
43678;SDS011;29279;50.858;4.392;2023-06-14T06:29:09;17.50;;;8.32;;
43678;SDS011;29279;50.858;4.392;2023-06-14T06:31:35;20.10;;;8.02;;
43678;SDS011;29279;50.858;4.392;2023-06-14T06:34:01;20.10;;;7.90;;
43678;SDS011;29279;50.858;4.392;2023-06-14T06:36:26;13.50;;;6.50;;
43678;SDS011;29279;50.858;4.392;2023-06-14T06:38:52;16.58;;;7.30;;
43678;SDS011;29279;50.858;4.392;2023-06-14T06:41:18;9.90;;;7.07;;
43678;SDS011;29279;50.858;4.392;2023-06-14T06:43:44;14.32;;;7.15;;
43678;SDS011;29279;50.858;4.392;2023-06-14T06:46:09;22.08;;;7.00;;
43678;SDS011;29279;50.858;4.392;2023-06-14T06:48:35;15.70;;;7.00;;
43678;SDS011;29279;50.858;4.392;2023-06-14T06:51:01;12.82;;;6.63;;
43678;SDS011;29279;50.858;4.392;2023-06-14T06:53:26;11.90;;;6.43;;
43678;SDS011;29279;50.858;4.392;2023-06-14T06:55:52;20.70;;;7.07;;
43678;SDS011;29279;50.858;4.392;2023-06-14T06:58:18;14.25;;;7.00;;
43678;SDS011;29279;50.858;4.392;2023-06-14T07:00:43;14.70;;;7.50;;
43678;SDS011;29279;50.858;4.392;2023-06-14T07:03:09;14.85;;;6.63;;
43678;SDS011;29279;50.858;4.392;2023-06-14T07:05:35;11.63;;;6.05;;
43678;SDS011;29279;50.858;4.392;2023-06-14T07:08:00;14.40;;;6.80;;
43678;SDS011;29279;50.858;4.392;2023-06-14T07:10:26;14.60;;;6.32;;
43678;SDS011;29279;50.858;4.392;2023-06-14T07:12:52;17.58;;;6.65;;
43678;SDS011;29279;50.858;4.392;2023-06-14T07:15:17;13.20;;;6.57;;
43678;SDS011;29279;50.858;4.392;2023-06-14T07:17:43;17.73;;;5.82;;
43678;SDS011;29279;50.858;4.392;2023-06-14T07:20:09;11.27;;;6.22;;
43678;SDS011;29279;50.858;4.392;2023-06-14T07:22:42;13.65;;;5.93;;
43678;SDS011;29279;50.858;4.392;2023-06-14T07:25:11;18.10;;;6.45;;
43678;SDS011;29279;50.858;4.392;2023-06-14T07:27:41;15.68;;;6.00;;
43678;SDS011;29279;50.858;4.392;2023-06-14T07:30:07;18.58;;;6.20;;
43678;SDS011;29279;50.858;4.392;2023-06-14T07:32:33;13.07;;;6.63;;
43678;SDS011;29279;50.858;4.392;2023-06-14T07:34:59;12.52;;;6.30;;
43678;SDS011;29279;50.858;4.392;2023-06-14T07:37:25;13.73;;;7.20;;
43678;SDS011;29279;50.858;4.392;2023-06-14T07:39:50;17.17;;;6.63;;
43678;SDS011;29279;50.858;4.392;2023-06-14T07:42:16;21.73;;;7.30;;
43678;SDS011;29279;50.858;4.392;2023-06-14T07:44:42;14.73;;;6.45;;
43678;SDS011;29279;50.858;4.392;2023-06-14T07:47:07;10.20;;;6.35;;
43678;SDS011;29279;50.858;4.392;2023-06-14T07:49:33;21.38;;;6.20;;
43678;SDS011;29279;50.858;4.392;2023-06-14T07:51:59;20.90;;;6.93;;
43678;SDS011;29279;50.858;4.392;2023-06-14T07:54:24;14.68;;;6.82;;
43678;SDS011;29279;50.858;4.392;2023-06-14T07:56:51;18.38;;;6.57;;
43678;SDS011;29279;50.858;4.392;2023-06-14T07:59:17;15.32;;;6.05;;
43678;SDS011;29279;50.858;4.392;2023-06-14T08:01:43;19.85;;;7.00;;
43678;SDS011;29279;50.858;4.392;2023-06-14T08:04:13;10.52;;;5.22;;
43678;SDS011;29279;50.858;4.392;2023-06-14T08:06:39;20.95;;;5.90;;
43678;SDS011;29279;50.858;4.392;2023-06-14T08:09:08;11.77;;;5.80;;
43678;SDS011;29279;50.858;4.392;2023-06-14T08:11:35;13.38;;;6.22;;
43678;SDS011;29279;50.858;4.392;2023-06-14T08:14:01;10.80;;;6.05;;
43678;SDS011;29279;50.858;4.392;2023-06-14T08:16:27;14.27;;;5.80;;
43678;SDS011;29279;50.858;4.392;2023-06-14T08:18:53;11.63;;;5.95;;
43678;SDS011;29279;50.858;4.392;2023-06-14T08:21:18;12.57;;;5.97;;
43678;SDS011;29279;50.858;4.392;2023-06-14T08:23:44;17.50;;;6.15;;
43678;SDS011;29279;50.858;4.392;2023-06-14T08:26:10;14.55;;;5.60;;
43678;SDS011;29279;50.858;4.392;2023-06-14T08:28:35;14.50;;;6.28;;
43678;SDS011;29279;50.858;4.392;2023-06-14T08:31:01;14.35;;;6.03;;
43678;SDS011;29279;50.858;4.392;2023-06-14T08:33:27;13.98;;;6.03;;
43678;SDS011;29279;50.858;4.392;2023-06-14T08:35:53;17.27;;;6.05;;
43678;SDS011;29279;50.858;4.392;2023-06-14T08:38:19;9.32;;;5.50;;
43678;SDS011;29279;50.858;4.392;2023-06-14T08:40:45;15.00;;;5.68;;
43678;SDS011;29279;50.858;4.392;2023-06-14T08:43:15;18.48;;;5.07;;
43678;SDS011;29279;50.858;4.392;2023-06-14T08:45:41;11.98;;;5.60;;
43678;SDS011;29279;50.858;4.392;2023-06-14T08:48:07;15.80;;;5.07;;
43678;SDS011;29279;50.858;4.392;2023-06-14T08:50:34;19.42;;;6.32;;
43678;SDS011;29279;50.858;4.392;2023-06-14T08:53:02;19.08;;;6.38;;
43678;SDS011;29279;50.858;4.392;2023-06-14T08:55:28;19.80;;;5.45;;
43678;SDS011;29279;50.858;4.392;2023-06-14T08:57:56;13.32;;;5.22;;
43678;SDS011;29279;50.858;4.392;2023-06-14T09:00:23;14.00;;;6.00;;
43678;SDS011;29279;50.858;4.392;2023-06-14T09:02:53;19.23;;;6.45;;
43678;SDS011;29279;50.858;4.392;2023-06-14T09:05:28;11.57;;;5.63;;
43678;SDS011;29279;50.858;4.392;2023-06-14T09:07:54;12.88;;;5.75;;
43678;SDS011;29279;50.858;4.392;2023-06-14T09:10:20;12.70;;;6.20;;
43678;SDS011;29279;50.858;4.392;2023-06-14T09:12:46;13.50;;;6.63;;
43678;SDS011;29279;50.858;4.392;2023-06-14T09:15:13;14.65;;;6.47;;
43678;SDS011;29279;50.858;4.392;2023-06-14T09:17:39;17.52;;;5.50;;
43678;SDS011;29279;50.858;4.392;2023-06-14T09:20:06;16.17;;;5.97;;
43678;SDS011;29279;50.858;4.392;2023-06-14T09:22:38;14.27;;;5.68;;
43678;SDS011;29279;50.858;4.392;2023-06-14T09:25:05;16.17;;;5.22;;
43678;SDS011;29279;50.858;4.392;2023-06-14T09:27:31;10.10;;;5.38;;
43678;SDS011;29279;50.858;4.392;2023-06-14T09:29:57;13.95;;;5.65;;
43678;SDS011;29279;50.858;4.392;2023-06-14T09:32:23;10.30;;;6.07;;
43678;SDS011;29279;50.858;4.392;2023-06-14T09:34:50;8.70;;;4.72;;
43678;SDS011;29279;50.858;4.392;2023-06-14T09:37:29;16.52;;;5.75;;
43678;SDS011;29279;50.858;4.392;2023-06-14T09:39:55;15.35;;;5.15;;
43678;SDS011;29279;50.858;4.392;2023-06-14T09:42:22;16.00;;;5.70;;
43678;SDS011;29279;50.858;4.392;2023-06-14T09:44:50;21.75;;;5.65;;
43678;SDS011;29279;50.858;4.392;2023-06-14T09:47:17;10.02;;;5.40;;
43678;SDS011;29279;50.858;4.392;2023-06-14T09:49:43;9.45;;;5.15;;
43678;SDS011;29279;50.858;4.392;2023-06-14T09:52:19;9.30;;;5.03;;
43678;SDS011;29279;50.858;4.392;2023-06-14T09:54:46;17.50;;;6.38;;
43678;SDS011;29279;50.858;4.392;2023-06-14T09:57:13;8.73;;;5.10;;
43678;SDS011;29279;50.858;4.392;2023-06-14T09:59:46;11.88;;;5.20;;
43678;SDS011;29279;50.858;4.392;2023-06-14T10:02:24;11.43;;;5.20;;
43678;SDS011;29279;50.858;4.392;2023-06-14T10:10:19;11.70;;;4.72;;
43678;SDS011;29279;50.858;4.392;2023-06-14T10:12:46;20.77;;;4.10;;
43678;SDS011;29279;50.858;4.392;2023-06-14T10:15:15;7.80;;;4.70;;
43678;SDS011;29279;50.858;4.392;2023-06-14T10:17:47;8.75;;;4.15;;
43678;SDS011;29279;50.858;4.392;2023-06-14T10:23:26;10.88;;;4.57;;
43678;SDS011;29279;50.858;4.392;2023-06-14T10:25:56;12.07;;;4.63;;
43678;SDS011;29279;50.858;4.392;2023-06-14T10:28:22;10.65;;;3.92;;
43678;SDS011;29279;50.858;4.392;2023-06-14T10:33:56;10.70;;;3.78;;
43678;SDS011;29279;50.858;4.392;2023-06-14T10:39:00;10.05;;;4.55;;
43678;SDS011;29279;50.858;4.392;2023-06-14T10:41:37;8.35;;;3.97;;
43678;SDS011;29279;50.858;4.392;2023-06-14T10:46:40;9.35;;;4.22;;
43678;SDS011;29279;50.858;4.392;2023-06-14T10:49:10;10.65;;;4.10;;
43678;SDS011;29279;50.858;4.392;2023-06-14T10:51:41;7.50;;;4.10;;
43678;SDS011;29279;50.858;4.392;2023-06-14T10:54:13;12.15;;;4.00;;
43678;SDS011;29279;50.858;4.392;2023-06-14T10:56:45;15.38;;;3.95;;
43678;SDS011;29279;50.858;4.392;2023-06-14T10:59:12;8.77;;;4.25;;
43678;SDS011;29279;50.858;4.392;2023-06-14T11:04:47;6.63;;;3.40;;
43678;SDS011;29279;50.858;4.392;2023-06-14T11:10:17;20.33;;;3.88;;
43678;SDS011;29279;50.858;4.392;2023-06-14T11:15:35;12.10;;;4.18;;
43678;SDS011;29279;50.858;4.392;2023-06-14T11:18:02;8.82;;;3.67;;
43678;SDS011;29279;50.858;4.392;2023-06-14T11:20:31;10.13;;;3.72;;
43678;SDS011;29279;50.858;4.392;2023-06-14T11:22:58;9.88;;;3.67;;
43678;SDS011;29279;50.858;4.392;2023-06-14T11:25:25;15.60;;;4.18;;
43678;SDS011;29279;50.858;4.392;2023-06-14T11:27:51;11.18;;;4.40;;
43678;SDS011;29279;50.858;4.392;2023-06-14T11:30:17;10.85;;;4.65;;
43678;SDS011;29279;50.858;4.392;2023-06-14T11:32:50;7.05;;;3.90;;
43678;SDS011;29279;50.858;4.392;2023-06-14T11:35:17;14.52;;;3.90;;
43678;SDS011;29279;50.858;4.392;2023-06-14T11:37:44;9.40;;;3.97;;
43678;SDS011;29279;50.858;4.392;2023-06-14T11:40:10;16.98;;;3.78;;
43678;SDS011;29279;50.858;4.392;2023-06-14T11:42:38;9.32;;;3.67;;
43678;SDS011;29279;50.858;4.392;2023-06-14T11:45:08;10.00;;;3.90;;
43678;SDS011;29279;50.858;4.392;2023-06-14T11:47:35;9.95;;;3.47;;
43678;SDS011;29279;50.858;4.392;2023-06-14T11:50:02;11.70;;;3.70;;
43678;SDS011;29279;50.858;4.392;2023-06-14T11:52:28;12.23;;;4.07;;
43678;SDS011;29279;50.858;4.392;2023-06-14T11:54:56;14.35;;;3.45;;
43678;SDS011;29279;50.858;4.392;2023-06-14T11:57:22;12.07;;;4.32;;
43678;SDS011;29279;50.858;4.392;2023-06-14T11:59:49;18.02;;;4.40;;
43678;SDS011;29279;50.858;4.392;2023-06-14T12:02:18;8.13;;;3.53;;
43678;SDS011;29279;50.858;4.392;2023-06-14T12:04:48;10.15;;;3.53;;
43678;SDS011;29279;50.858;4.392;2023-06-14T12:07:14;10.65;;;3.63;;
43678;SDS011;29279;50.858;4.392;2023-06-14T12:09:42;13.60;;;3.70;;
43678;SDS011;29279;50.858;4.392;2023-06-14T12:12:28;12.63;;;4.32;;
43678;SDS011;29279;50.858;4.392;2023-06-14T12:14:57;10.48;;;3.15;;
43678;SDS011;29279;50.858;4.392;2023-06-14T12:17:22;12.45;;;3.65;;
43678;SDS011;29279;50.858;4.392;2023-06-14T12:19:48;7.13;;;3.20;;
43678;SDS011;29279;50.858;4.392;2023-06-14T12:22:15;7.80;;;3.13;;
43678;SDS011;29279;50.858;4.392;2023-06-14T12:24:44;9.93;;;3.45;;
43678;SDS011;29279;50.858;4.392;2023-06-14T12:27:11;5.65;;;3.22;;
43678;SDS011;29279;50.858;4.392;2023-06-14T12:29:41;5.72;;;3.35;;
43678;SDS011;29279;50.858;4.392;2023-06-14T12:32:10;9.15;;;4.15;;
43678;SDS011;29279;50.858;4.392;2023-06-14T12:34:36;11.00;;;3.33;;
43678;SDS011;29279;50.858;4.392;2023-06-14T12:37:02;15.95;;;3.38;;
43678;SDS011;29279;50.858;4.392;2023-06-14T12:39:31;7.38;;;2.85;;
43678;SDS011;29279;50.858;4.392;2023-06-14T12:41:57;6.40;;;2.92;;
43678;SDS011;29279;50.858;4.392;2023-06-14T12:44:24;10.35;;;3.13;;
43678;SDS011;29279;50.858;4.392;2023-06-14T12:46:50;5.00;;;2.58;;
43678;SDS011;29279;50.858;4.392;2023-06-14T12:49:18;8.98;;;2.83;;
43678;SDS011;29279;50.858;4.392;2023-06-14T12:51:45;21.77;;;3.45;;
43678;SDS011;29279;50.858;4.392;2023-06-14T12:54:10;5.07;;;2.70;;
43678;SDS011;29279;50.858;4.392;2023-06-14T12:56:37;10.23;;;2.88;;
43678;SDS011;29279;50.858;4.392;2023-06-14T12:59:02;8.35;;;3.10;;
43678;SDS011;29279;50.858;4.392;2023-06-14T13:01:28;9.85;;;3.33;;
43678;SDS011;29279;50.858;4.392;2023-06-14T13:03:54;23.13;;;3.25;;
43678;SDS011;29279;50.858;4.392;2023-06-14T13:06:23;8.63;;;3.10;;
43678;SDS011;29279;50.858;4.392;2023-06-14T13:08:49;8.20;;;3.05;;
43678;SDS011;29279;50.858;4.392;2023-06-14T13:11:15;6.50;;;2.90;;
43678;SDS011;29279;50.858;4.392;2023-06-14T13:13:41;6.70;;;2.80;;
43678;SDS011;29279;50.858;4.392;2023-06-14T13:16:06;19.35;;;3.13;;
43678;SDS011;29279;50.858;4.392;2023-06-14T13:18:32;8.85;;;3.25;;
43678;SDS011;29279;50.858;4.392;2023-06-14T13:20:58;7.60;;;2.55;;
43678;SDS011;29279;50.858;4.392;2023-06-14T13:23:24;11.55;;;2.90;;
43678;SDS011;29279;50.858;4.392;2023-06-14T13:25:49;9.18;;;3.20;;
43678;SDS011;29279;50.858;4.392;2023-06-14T13:28:16;6.85;;;2.95;;
43678;SDS011;29279;50.858;4.392;2023-06-14T13:30:42;8.35;;;2.60;;
43678;SDS011;29279;50.858;4.392;2023-06-14T13:33:07;5.50;;;2.78;;
43678;SDS011;29279;50.858;4.392;2023-06-14T13:35:33;5.68;;;2.75;;
43678;SDS011;29279;50.858;4.392;2023-06-14T13:37:59;6.25;;;2.50;;
43678;SDS011;29279;50.858;4.392;2023-06-14T13:40:25;13.35;;;3.00;;
43678;SDS011;29279;50.858;4.392;2023-06-14T13:42:51;19.67;;;3.60;;
43678;SDS011;29279;50.858;4.392;2023-06-14T13:45:17;7.38;;;2.42;;
43678;SDS011;29279;50.858;4.392;2023-06-14T13:47:42;10.15;;;2.65;;
43678;SDS011;29279;50.858;4.392;2023-06-14T13:50:09;10.13;;;2.80;;
43678;SDS011;29279;50.858;4.392;2023-06-14T13:52:34;4.05;;;2.30;;
43678;SDS011;29279;50.858;4.392;2023-06-14T13:55:00;4.03;;;2.20;;
43678;SDS011;29279;50.858;4.392;2023-06-14T13:57:26;11.20;;;3.20;;
43678;SDS011;29279;50.858;4.392;2023-06-14T13:59:52;4.75;;;2.42;;
43678;SDS011;29279;50.858;4.392;2023-06-14T14:02:20;6.25;;;2.42;;
43678;SDS011;29279;50.858;4.392;2023-06-14T14:04:46;13.80;;;2.70;;
43678;SDS011;29279;50.858;4.392;2023-06-14T14:07:17;8.43;;;2.28;;
43678;SDS011;29279;50.858;4.392;2023-06-14T14:09:44;6.25;;;2.13;;
43678;SDS011;29279;50.858;4.392;2023-06-14T14:12:09;11.95;;;2.30;;
43678;SDS011;29279;50.858;4.392;2023-06-14T14:14:36;12.25;;;2.03;;
43678;SDS011;29279;50.858;4.392;2023-06-14T14:17:02;3.53;;;1.88;;
43678;SDS011;29279;50.858;4.392;2023-06-14T14:19:27;5.82;;;1.98;;
43678;SDS011;29279;50.858;4.392;2023-06-14T14:21:53;6.88;;;2.15;;
43678;SDS011;29279;50.858;4.392;2023-06-14T14:24:19;8.45;;;1.85;;
43678;SDS011;29279;50.858;4.392;2023-06-14T14:26:44;6.05;;;2.20;;
43678;SDS011;29279;50.858;4.392;2023-06-14T14:29:13;6.65;;;1.40;;
43678;SDS011;29279;50.858;4.392;2023-06-14T14:31:39;4.90;;;2.03;;
43678;SDS011;29279;50.858;4.392;2023-06-14T14:34:05;3.45;;;1.50;;
43678;SDS011;29279;50.858;4.392;2023-06-14T14:36:30;8.60;;;2.08;;
43678;SDS011;29279;50.858;4.392;2023-06-14T14:38:58;8.52;;;1.65;;
43678;SDS011;29279;50.858;4.392;2023-06-14T14:41:24;5.25;;;1.70;;
43678;SDS011;29279;50.858;4.392;2023-06-14T14:43:50;11.85;;;2.00;;
43678;SDS011;29279;50.858;4.392;2023-06-14T14:46:15;8.15;;;1.73;;
43678;SDS011;29279;50.858;4.392;2023-06-14T14:48:42;4.15;;;1.52;;
43678;SDS011;29279;50.858;4.392;2023-06-14T14:51:07;3.58;;;1.60;;
43678;SDS011;29279;50.858;4.392;2023-06-14T14:53:33;9.10;;;1.58;;
43678;SDS011;29279;50.858;4.392;2023-06-14T14:55:59;3.78;;;1.30;;
43678;SDS011;29279;50.858;4.392;2023-06-14T14:58:25;9.18;;;1.98;;
43678;SDS011;29279;50.858;4.392;2023-06-14T15:00:50;4.43;;;1.55;;
43678;SDS011;29279;50.858;4.392;2023-06-14T15:03:16;6.72;;;1.50;;
43678;SDS011;29279;50.858;4.392;2023-06-14T15:05:42;5.15;;;1.65;;
43678;SDS011;29279;50.858;4.392;2023-06-14T15:08:07;5.72;;;1.48;;
43678;SDS011;29279;50.858;4.392;2023-06-14T15:10:37;6.40;;;2.10;;
43678;SDS011;29279;50.858;4.392;2023-06-14T15:13:05;6.15;;;1.67;;
43678;SDS011;29279;50.858;4.392;2023-06-14T15:15:32;3.65;;;1.40;;
43678;SDS011;29279;50.858;4.392;2023-06-14T15:17:59;8.75;;;2.00;;
43678;SDS011;29279;50.858;4.392;2023-06-14T15:20:25;3.15;;;1.70;;
43678;SDS011;29279;50.858;4.392;2023-06-14T15:22:51;8.68;;;1.90;;
43678;SDS011;29279;50.858;4.392;2023-06-14T15:25:17;10.70;;;1.92;;
43678;SDS011;29279;50.858;4.392;2023-06-14T15:27:44;8.23;;;1.67;;
43678;SDS011;29279;50.858;4.392;2023-06-14T15:30:10;3.55;;;1.83;;